sensor_id;sensor_type;location;lat;lon;timestamp;temperature;humidity
24262;DHT22;12385;51.412;5.540;2024-03-02T00:01:25;9.70;99.90
24262;DHT22;12385;51.412;5.540;2024-03-02T00:03:51;9.80;99.90
24262;DHT22;12385;51.412;5.540;2024-03-02T00:06:20;9.80;99.90
24262;DHT22;12385;51.412;5.540;2024-03-02T00:08:46;9.80;99.90
24262;DHT22;12385;51.412;5.540;2024-03-02T00:11:12;9.80;99.90
24262;DHT22;12385;51.412;5.540;2024-03-02T00:13:39;9.80;99.90
24262;DHT22;12385;51.412;5.540;2024-03-02T00:16:05;9.80;99.90
24262;DHT22;12385;51.412;5.540;2024-03-02T00:18:35;9.80;99.90
24262;DHT22;12385;51.412;5.540;2024-03-02T00:21:01;9.80;99.90
24262;DHT22;12385;51.412;5.540;2024-03-02T00:23:30;9.60;99.90
24262;DHT22;12385;51.412;5.540;2024-03-02T00:25:56;9.40;99.90
24262;DHT22;12385;51.412;5.540;2024-03-02T00:28:32;9.10;99.90
24262;DHT22;12385;51.412;5.540;2024-03-02T00:33:44;8.60;99.90
24262;DHT22;12385;51.412;5.540;2024-03-02T00:36:24;8.50;99.90
24262;DHT22;12385;51.412;5.540;2024-03-02T00:38:54;8.40;99.90
24262;DHT22;12385;51.412;5.540;2024-03-02T00:41:32;8.40;99.90
24262;DHT22;12385;51.412;5.540;2024-03-02T00:44:03;8.30;99.90
24262;DHT22;12385;51.412;5.540;2024-03-02T00:46:37;8.30;99.90
24262;DHT22;12385;51.412;5.540;2024-03-02T00:49:22;8.30;99.90
24262;DHT22;12385;51.412;5.540;2024-03-02T00:51:55;8.30;99.90
24262;DHT22;12385;51.412;5.540;2024-03-02T00:54:21;8.30;99.90
24262;DHT22;12385;51.412;5.540;2024-03-02T00:56:54;8.30;99.90
24262;DHT22;12385;51.412;5.540;2024-03-02T00:59:22;8.30;99.90
24262;DHT22;12385;51.412;5.540;2024-03-02T01:01:50;8.40;99.90
24262;DHT22;12385;51.412;5.540;2024-03-02T01:04:16;8.30;99.90
24262;DHT22;12385;51.412;5.540;2024-03-02T01:06:43;8.30;99.90
24262;DHT22;12385;51.412;5.540;2024-03-02T01:09:09;8.30;99.90
24262;DHT22;12385;51.412;5.540;2024-03-02T01:11:34;8.30;99.90
24262;DHT22;12385;51.412;5.540;2024-03-02T01:14:00;8.30;99.90
24262;DHT22;12385;51.412;5.540;2024-03-02T01:16:26;8.40;99.90
24262;DHT22;12385;51.412;5.540;2024-03-02T01:18:54;8.40;99.90
24262;DHT22;12385;51.412;5.540;2024-03-02T01:21:20;8.40;99.90
24262;DHT22;12385;51.412;5.540;2024-03-02T01:23:45;8.40;99.90
24262;DHT22;12385;51.412;5.540;2024-03-02T01:26:11;8.40;99.90
24262;DHT22;12385;51.412;5.540;2024-03-02T01:28:37;8.40;99.90
24262;DHT22;12385;51.412;5.540;2024-03-02T01:31:03;8.40;99.90
24262;DHT22;12385;51.412;5.540;2024-03-02T01:33:28;8.40;99.90
24262;DHT22;12385;51.412;5.540;2024-03-02T01:35:54;8.40;99.90
24262;DHT22;12385;51.412;5.540;2024-03-02T01:38:20;8.40;99.90
24262;DHT22;12385;51.412;5.540;2024-03-02T01:40:47;8.40;99.90
24262;DHT22;12385;51.412;5.540;2024-03-02T01:43:13;8.40;99.90
24262;DHT22;12385;51.412;5.540;2024-03-02T01:45:38;8.40;99.90
24262;DHT22;12385;51.412;5.540;2024-03-02T01:48:05;8.40;99.90
24262;DHT22;12385;51.412;5.540;2024-03-02T01:50:32;8.40;99.90
24262;DHT22;12385;51.412;5.540;2024-03-02T01:52:59;8.40;99.90
24262;DHT22;12385;51.412;5.540;2024-03-02T01:55:26;8.40;99.90
24262;DHT22;12385;51.412;5.540;2024-03-02T01:57:55;8.40;99.90
24262;DHT22;12385;51.412;5.540;2024-03-02T02:00:24;8.40;99.90
24262;DHT22;12385;51.412;5.540;2024-03-02T02:02:54;8.40;99.90
24262;DHT22;12385;51.412;5.540;2024-03-02T02:05:20;8.40;99.90
24262;DHT22;12385;51.412;5.540;2024-03-02T02:07:46;8.40;99.90
24262;DHT22;12385;51.412;5.540;2024-03-02T02:10:11;8.40;99.90
24262;DHT22;12385;51.412;5.540;2024-03-02T02:12:37;8.40;99.90
24262;DHT22;12385;51.412;5.540;2024-03-02T02:15:04;8.30;99.90
24262;DHT22;12385;51.412;5.540;2024-03-02T02:17:46;8.30;99.90
24262;DHT22;12385;51.412;5.540;2024-03-02T02:20:12;8.20;99.90
24262;DHT22;12385;51.412;5.540;2024-03-02T02:22:37;8.20;99.90
24262;DHT22;12385;51.412;5.540;2024-03-02T02:25:03;8.20;99.90
24262;DHT22;12385;51.412;5.540;2024-03-02T02:27:29;8.20;99.90
24262;DHT22;12385;51.412;5.540;2024-03-02T02:29:56;8.20;99.90
24262;DHT22;12385;51.412;5.540;2024-03-02T02:32:24;8.20;99.90
24262;DHT22;12385;51.412;5.540;2024-03-02T02:34:54;8.20;99.90
24262;DHT22;12385;51.412;5.540;2024-03-02T02:37:22;8.20;99.90
24262;DHT22;12385;51.412;5.540;2024-03-02T02:39:49;8.30;99.90
24262;DHT22;12385;51.412;5.540;2024-03-02T02:42:14;8.20;99.90
24262;DHT22;12385;51.412;5.540;2024-03-02T02:44:40;8.30;99.90
24262;DHT22;12385;51.412;5.540;2024-03-02T02:47:06;8.20;99.90
24262;DHT22;12385;51.412;5.540;2024-03-02T02:49:32;8.20;99.90
24262;DHT22;12385;51.412;5.540;2024-03-02T02:51:57;8.20;99.90
24262;DHT22;12385;51.412;5.540;2024-03-02T02:54:25;8.20;99.90
24262;DHT22;12385;51.412;5.540;2024-03-02T02:56:51;8.20;99.90
24262;DHT22;12385;51.412;5.540;2024-03-02T02:59:16;8.20;99.90
24262;DHT22;12385;51.412;5.540;2024-03-02T03:01:42;8.20;99.90
24262;DHT22;12385;51.412;5.540;2024-03-02T03:04:08;8.20;99.90
24262;DHT22;12385;51.412;5.540;2024-03-02T03:06:33;8.10;99.90
24262;DHT22;12385;51.412;5.540;2024-03-02T03:08:59;8.10;99.90
24262;DHT22;12385;51.412;5.540;2024-03-02T03:11:25;8.10;99.90
24262;DHT22;12385;51.412;5.540;2024-03-02T03:13:54;8.10;99.90
24262;DHT22;12385;51.412;5.540;2024-03-02T03:16:24;8.10;99.90
24262;DHT22;12385;51.412;5.540;2024-03-02T03:18:50;8.10;99.90
24262;DHT22;12385;51.412;5.540;2024-03-02T03:21:16;8.10;99.90
24262;DHT22;12385;51.412;5.540;2024-03-02T03:23:42;8.10;99.90
24262;DHT22;12385;51.412;5.540;2024-03-02T03:26:08;8.10;99.90
24262;DHT22;12385;51.412;5.540;2024-03-02T03:28:33;8.10;99.90
24262;DHT22;12385;51.412;5.540;2024-03-02T03:30:59;8.10;99.90
24262;DHT22;12385;51.412;5.540;2024-03-02T03:33:25;8.10;99.90
24262;DHT22;12385;51.412;5.540;2024-03-02T03:35:51;8.10;99.90
24262;DHT22;12385;51.412;5.540;2024-03-02T03:38:19;8.10;99.90
24262;DHT22;12385;51.412;5.540;2024-03-02T03:40:45;8.10;99.90
24262;DHT22;12385;51.412;5.540;2024-03-02T03:43:11;8.10;99.90
24262;DHT22;12385;51.412;5.540;2024-03-02T03:45:36;8.20;99.90
24262;DHT22;12385;51.412;5.540;2024-03-02T03:48:02;8.10;99.90
24262;DHT22;12385;51.412;5.540;2024-03-02T03:50:28;8.10;99.90
24262;DHT22;12385;51.412;5.540;2024-03-02T03:52:54;8.10;99.90
24262;DHT22;12385;51.412;5.540;2024-03-02T03:55:20;8.10;99.90
24262;DHT22;12385;51.412;5.540;2024-03-02T03:57:46;8.10;99.90
24262;DHT22;12385;51.412;5.540;2024-03-02T04:00:12;8.10;99.90
24262;DHT22;12385;51.412;5.540;2024-03-02T04:02:38;8.10;99.90
24262;DHT22;12385;51.412;5.540;2024-03-02T04:05:04;8.10;99.90
24262;DHT22;12385;51.412;5.540;2024-03-02T04:07:37;8.00;99.90
24262;DHT22;12385;51.412;5.540;2024-03-02T04:10:09;8.00;99.90
24262;DHT22;12385;51.412;5.540;2024-03-02T04:12:36;8.00;99.90
24262;DHT22;12385;51.412;5.540;2024-03-02T04:15:04;8.00;99.90
24262;DHT22;12385;51.412;5.540;2024-03-02T04:17:32;8.00;99.90
24262;DHT22;12385;51.412;5.540;2024-03-02T04:19:59;7.90;99.90
24262;DHT22;12385;51.412;5.540;2024-03-02T04:22:27;7.90;99.90
24262;DHT22;12385;51.412;5.540;2024-03-02T04:24:55;7.80;99.90
24262;DHT22;12385;51.412;5.540;2024-03-02T04:27:21;7.80;99.90
24262;DHT22;12385;51.412;5.540;2024-03-02T04:29:47;7.80;99.90
24262;DHT22;12385;51.412;5.540;2024-03-02T04:32:12;7.80;99.90
24262;DHT22;12385;51.412;5.540;2024-03-02T04:34:38;7.70;99.90
24262;DHT22;12385;51.412;5.540;2024-03-02T04:37:04;7.80;99.90
24262;DHT22;12385;51.412;5.540;2024-03-02T04:39:29;7.80;99.90
24262;DHT22;12385;51.412;5.540;2024-03-02T04:41:55;7.80;99.90
24262;DHT22;12385;51.412;5.540;2024-03-02T04:44:21;7.80;99.90
24262;DHT22;12385;51.412;5.540;2024-03-02T04:46:47;7.80;99.90
24262;DHT22;12385;51.412;5.540;2024-03-02T04:49:12;7.80;99.90
24262;DHT22;12385;51.412;5.540;2024-03-02T04:51:38;7.80;99.90
24262;DHT22;12385;51.412;5.540;2024-03-02T04:54:03;7.80;99.90
24262;DHT22;12385;51.412;5.540;2024-03-02T04:56:29;7.90;99.90
24262;DHT22;12385;51.412;5.540;2024-03-02T04:58:57;7.90;99.90
24262;DHT22;12385;51.412;5.540;2024-03-02T05:01:25;7.90;99.90
24262;DHT22;12385;51.412;5.540;2024-03-02T05:03:51;7.90;99.90
24262;DHT22;12385;51.412;5.540;2024-03-02T05:06:16;7.90;99.90
24262;DHT22;12385;51.412;5.540;2024-03-02T05:08:42;7.90;99.90
24262;DHT22;12385;51.412;5.540;2024-03-02T05:11:10;7.80;99.90
24262;DHT22;12385;51.412;5.540;2024-03-02T05:13:56;7.70;99.90
24262;DHT22;12385;51.412;5.540;2024-03-02T05:16:25;7.60;99.90
24262;DHT22;12385;51.412;5.540;2024-03-02T05:18:50;7.60;99.90
24262;DHT22;12385;51.412;5.540;2024-03-02T05:21:16;7.40;99.90
24262;DHT22;12385;51.412;5.540;2024-03-02T05:23:42;7.40;99.90
24262;DHT22;12385;51.412;5.540;2024-03-02T05:26:07;7.40;99.90
24262;DHT22;12385;51.412;5.540;2024-03-02T05:28:33;7.40;99.90
24262;DHT22;12385;51.412;5.540;2024-03-02T05:30:59;7.40;99.90
24262;DHT22;12385;51.412;5.540;2024-03-02T05:33:25;7.50;99.90
24262;DHT22;12385;51.412;5.540;2024-03-02T05:35:51;7.50;99.90
24262;DHT22;12385;51.412;5.540;2024-03-02T05:38:17;7.50;99.90
24262;DHT22;12385;51.412;5.540;2024-03-02T05:40:42;7.50;99.90
24262;DHT22;12385;51.412;5.540;2024-03-02T05:43:08;7.60;99.90
24262;DHT22;12385;51.412;5.540;2024-03-02T05:45:33;7.60;99.90
24262;DHT22;12385;51.412;5.540;2024-03-02T05:47:59;7.60;99.90
24262;DHT22;12385;51.412;5.540;2024-03-02T05:50:25;7.60;99.90
24262;DHT22;12385;51.412;5.540;2024-03-02T05:52:52;7.60;99.90
24262;DHT22;12385;51.412;5.540;2024-03-02T05:55:18;7.70;99.90
24262;DHT22;12385;51.412;5.540;2024-03-02T05:57:44;7.70;99.90
24262;DHT22;12385;51.412;5.540;2024-03-02T06:00:10;7.70;99.90
24262;DHT22;12385;51.412;5.540;2024-03-02T06:02:39;7.70;99.90
24262;DHT22;12385;51.412;5.540;2024-03-02T06:05:06;7.70;99.90
24262;DHT22;12385;51.412;5.540;2024-03-02T06:07:32;7.80;99.90
24262;DHT22;12385;51.412;5.540;2024-03-02T06:09:58;7.70;99.90
24262;DHT22;12385;51.412;5.540;2024-03-02T06:12:25;7.80;99.90
24262;DHT22;12385;51.412;5.540;2024-03-02T06:14:51;7.80;99.90
24262;DHT22;12385;51.412;5.540;2024-03-02T06:17:17;7.70;99.90
24262;DHT22;12385;51.412;5.540;2024-03-02T06:19:44;7.80;99.90
24262;DHT22;12385;51.412;5.540;2024-03-02T06:22:10;7.70;99.90
24262;DHT22;12385;51.412;5.540;2024-03-02T06:24:36;7.70;99.90
24262;DHT22;12385;51.412;5.540;2024-03-02T06:27:03;7.60;99.90
24262;DHT22;12385;51.412;5.540;2024-03-02T06:29:29;7.60;99.90
24262;DHT22;12385;51.412;5.540;2024-03-02T06:31:55;7.50;99.90
24262;DHT22;12385;51.412;5.540;2024-03-02T06:34:21;7.50;99.90
24262;DHT22;12385;51.412;5.540;2024-03-02T06:36:46;7.50;99.90
24262;DHT22;12385;51.412;5.540;2024-03-02T06:39:13;7.40;99.90
24262;DHT22;12385;51.412;5.540;2024-03-02T06:41:38;7.40;99.90
24262;DHT22;12385;51.412;5.540;2024-03-02T06:44:04;7.40;99.90
24262;DHT22;12385;51.412;5.540;2024-03-02T06:46:32;7.40;99.90
24262;DHT22;12385;51.412;5.540;2024-03-02T06:48:57;7.30;99.90
24262;DHT22;12385;51.412;5.540;2024-03-02T06:51:24;7.30;99.90
24262;DHT22;12385;51.412;5.540;2024-03-02T06:53:50;7.30;99.90
24262;DHT22;12385;51.412;5.540;2024-03-02T06:56:16;7.40;99.90
24262;DHT22;12385;51.412;5.540;2024-03-02T06:58:41;7.40;99.90
24262;DHT22;12385;51.412;5.540;2024-03-02T07:01:08;7.40;99.90
24262;DHT22;12385;51.412;5.540;2024-03-02T07:03:34;7.40;99.90
24262;DHT22;12385;51.412;5.540;2024-03-02T07:06:00;7.40;99.90
24262;DHT22;12385;51.412;5.540;2024-03-02T07:08:26;7.40;99.90
24262;DHT22;12385;51.412;5.540;2024-03-02T07:10:51;7.50;99.90
24262;DHT22;12385;51.412;5.540;2024-03-02T07:13:17;7.40;99.90
24262;DHT22;12385;51.412;5.540;2024-03-02T07:15:42;7.40;99.90
24262;DHT22;12385;51.412;5.540;2024-03-02T07:18:20;7.40;99.90
24262;DHT22;12385;51.412;5.540;2024-03-02T07:20:45;7.50;99.90
24262;DHT22;12385;51.412;5.540;2024-03-02T07:23:11;7.50;99.90
24262;DHT22;12385;51.412;5.540;2024-03-02T07:25:38;7.50;99.90
24262;DHT22;12385;51.412;5.540;2024-03-02T07:28:05;7.50;99.90
24262;DHT22;12385;51.412;5.540;2024-03-02T07:30:36;7.50;99.90
24262;DHT22;12385;51.412;5.540;2024-03-02T07:33:04;7.50;99.90
24262;DHT22;12385;51.412;5.540;2024-03-02T07:35:30;7.60;99.90
24262;DHT22;12385;51.412;5.540;2024-03-02T07:37:57;7.60;99.90
24262;DHT22;12385;51.412;5.540;2024-03-02T07:40:23;7.60;99.90
24262;DHT22;12385;51.412;5.540;2024-03-02T07:42:49;7.60;99.90
24262;DHT22;12385;51.412;5.540;2024-03-02T07:45:15;7.60;99.90
24262;DHT22;12385;51.412;5.540;2024-03-02T07:47:41;7.60;99.90
24262;DHT22;12385;51.412;5.540;2024-03-02T07:50:07;7.60;99.90
24262;DHT22;12385;51.412;5.540;2024-03-02T07:52:33;7.60;99.90
24262;DHT22;12385;51.412;5.540;2024-03-02T07:54:59;7.60;99.90
24262;DHT22;12385;51.412;5.540;2024-03-02T07:57:25;7.60;99.90
24262;DHT22;12385;51.412;5.540;2024-03-02T07:59:51;7.60;99.90
24262;DHT22;12385;51.412;5.540;2024-03-02T08:02:21;7.60;99.90
24262;DHT22;12385;51.412;5.540;2024-03-02T08:04:49;7.60;99.90
24262;DHT22;12385;51.412;5.540;2024-03-02T08:07:15;7.60;99.90
24262;DHT22;12385;51.412;5.540;2024-03-02T08:09:41;7.60;99.90
24262;DHT22;12385;51.412;5.540;2024-03-02T08:12:07;7.60;99.90
24262;DHT22;12385;51.412;5.540;2024-03-02T08:14:32;7.60;99.90
24262;DHT22;12385;51.412;5.540;2024-03-02T08:16:58;7.70;99.90
24262;DHT22;12385;51.412;5.540;2024-03-02T08:19:25;7.60;99.90
24262;DHT22;12385;51.412;5.540;2024-03-02T08:21:51;7.70;99.90
24262;DHT22;12385;51.412;5.540;2024-03-02T08:24:21;7.70;99.90
24262;DHT22;12385;51.412;5.540;2024-03-02T08:26:52;7.70;99.90
24262;DHT22;12385;51.412;5.540;2024-03-02T08:29:19;7.80;99.90
24262;DHT22;12385;51.412;5.540;2024-03-02T08:31:44;7.80;99.90
24262;DHT22;12385;51.412;5.540;2024-03-02T08:34:10;7.90;99.90
24262;DHT22;12385;51.412;5.540;2024-03-02T08:36:36;7.90;99.90
24262;DHT22;12385;51.412;5.540;2024-03-02T08:39:02;8.00;99.90
24262;DHT22;12385;51.412;5.540;2024-03-02T08:41:28;8.00;99.90
24262;DHT22;12385;51.412;5.540;2024-03-02T08:43:56;8.10;99.90
24262;DHT22;12385;51.412;5.540;2024-03-02T08:46:24;8.20;99.90
24262;DHT22;12385;51.412;5.540;2024-03-02T08:48:51;8.20;99.90
24262;DHT22;12385;51.412;5.540;2024-03-02T08:51:16;8.20;99.90
24262;DHT22;12385;51.412;5.540;2024-03-02T08:53:42;8.30;99.90
24262;DHT22;12385;51.412;5.540;2024-03-02T08:56:08;8.40;99.90
24262;DHT22;12385;51.412;5.540;2024-03-02T08:58:34;8.40;99.90
24262;DHT22;12385;51.412;5.540;2024-03-02T09:01:00;8.50;99.90
24262;DHT22;12385;51.412;5.540;2024-03-02T09:03:26;8.50;99.90
24262;DHT22;12385;51.412;5.540;2024-03-02T09:05:51;8.50;99.90
24262;DHT22;12385;51.412;5.540;2024-03-02T09:08:17;8.60;99.90
24262;DHT22;12385;51.412;5.540;2024-03-02T09:10:43;8.60;99.90
24262;DHT22;12385;51.412;5.540;2024-03-02T09:13:09;8.60;99.90
24262;DHT22;12385;51.412;5.540;2024-03-02T09:15:34;8.70;99.90
24262;DHT22;12385;51.412;5.540;2024-03-02T09:18:03;8.70;99.90
24262;DHT22;12385;51.412;5.540;2024-03-02T09:20:29;8.80;99.90
24262;DHT22;12385;51.412;5.540;2024-03-02T09:22:55;8.80;99.90
24262;DHT22;12385;51.412;5.540;2024-03-02T09:25:20;8.80;99.90
24262;DHT22;12385;51.412;5.540;2024-03-02T09:27:46;8.90;99.90
24262;DHT22;12385;51.412;5.540;2024-03-02T09:30:12;8.90;99.90
24262;DHT22;12385;51.412;5.540;2024-03-02T09:32:39;8.90;99.90
24262;DHT22;12385;51.412;5.540;2024-03-02T09:35:06;8.90;99.90
24262;DHT22;12385;51.412;5.540;2024-03-02T09:37:32;9.00;99.90
24262;DHT22;12385;51.412;5.540;2024-03-02T09:39:58;9.00;99.90
24262;DHT22;12385;51.412;5.540;2024-03-02T09:42:24;9.10;99.90
24262;DHT22;12385;51.412;5.540;2024-03-02T09:44:52;9.20;99.90
24262;DHT22;12385;51.412;5.540;2024-03-02T09:47:20;9.20;99.90
24262;DHT22;12385;51.412;5.540;2024-03-02T09:49:47;9.30;99.90
24262;DHT22;12385;51.412;5.540;2024-03-02T09:52:13;9.30;99.90
24262;DHT22;12385;51.412;5.540;2024-03-02T09:54:40;9.40;99.90
24262;DHT22;12385;51.412;5.540;2024-03-02T09:57:05;9.40;99.90
24262;DHT22;12385;51.412;5.540;2024-03-02T09:59:31;9.40;99.90
24262;DHT22;12385;51.412;5.540;2024-03-02T10:02:01;9.50;99.90
24262;DHT22;12385;51.412;5.540;2024-03-02T10:04:28;9.50;99.90
24262;DHT22;12385;51.412;5.540;2024-03-02T10:07:17;9.50;99.90
24262;DHT22;12385;51.412;5.540;2024-03-02T10:09:44;9.60;99.90
24262;DHT22;12385;51.412;5.540;2024-03-02T10:12:12;9.60;99.90
24262;DHT22;12385;51.412;5.540;2024-03-02T10:14:39;9.70;99.90
24262;DHT22;12385;51.412;5.540;2024-03-02T10:17:06;9.70;99.90
24262;DHT22;12385;51.412;5.540;2024-03-02T10:19:33;9.70;99.90
24262;DHT22;12385;51.412;5.540;2024-03-02T10:22:03;9.80;99.90
24262;DHT22;12385;51.412;5.540;2024-03-02T10:24:39;9.80;99.90
24262;DHT22;12385;51.412;5.540;2024-03-02T10:27:16;9.90;99.90
24262;DHT22;12385;51.412;5.540;2024-03-02T10:29:45;9.90;99.90
24262;DHT22;12385;51.412;5.540;2024-03-02T10:32:11;10.00;99.90
24262;DHT22;12385;51.412;5.540;2024-03-02T10:34:40;10.00;99.90
24262;DHT22;12385;51.412;5.540;2024-03-02T10:37:06;10.10;99.90
24262;DHT22;12385;51.412;5.540;2024-03-02T10:39:35;10.10;99.90
24262;DHT22;12385;51.412;5.540;2024-03-02T10:42:02;10.10;99.90
24262;DHT22;12385;51.412;5.540;2024-03-02T10:44:30;10.20;99.90
24262;DHT22;12385;51.412;5.540;2024-03-02T10:46:56;10.20;99.90
24262;DHT22;12385;51.412;5.540;2024-03-02T10:49:25;10.20;99.90
24262;DHT22;12385;51.412;5.540;2024-03-02T10:51:53;10.30;99.90
24262;DHT22;12385;51.412;5.540;2024-03-02T10:54:20;10.30;99.90
24262;DHT22;12385;51.412;5.540;2024-03-02T10:56:55;10.40;99.90
24262;DHT22;12385;51.412;5.540;2024-03-02T11:02:00;10.50;99.90
24262;DHT22;12385;51.412;5.540;2024-03-02T11:04:28;10.60;99.90
24262;DHT22;12385;51.412;5.540;2024-03-02T11:07:04;10.70;99.90
24262;DHT22;12385;51.412;5.540;2024-03-02T11:09:34;10.80;99.90
24262;DHT22;12385;51.412;5.540;2024-03-02T11:12:15;10.90;99.90
24262;DHT22;12385;51.412;5.540;2024-03-02T11:14:44;10.90;99.90
24262;DHT22;12385;51.412;5.540;2024-03-02T11:17:11;10.90;99.90
24262;DHT22;12385;51.412;5.540;2024-03-02T11:19:40;11.00;99.90
24262;DHT22;12385;51.412;5.540;2024-03-02T11:22:08;11.00;99.90
24262;DHT22;12385;51.412;5.540;2024-03-02T11:24:34;11.10;99.90
24262;DHT22;12385;51.412;5.540;2024-03-02T11:27:07;11.20;99.90
24262;DHT22;12385;51.412;5.540;2024-03-02T11:34:41;11.40;99.90
24262;DHT22;12385;51.412;5.540;2024-03-02T11:37:12;11.40;99.90
24262;DHT22;12385;51.412;5.540;2024-03-02T11:39:39;11.40;99.90
24262;DHT22;12385;51.412;5.540;2024-03-02T11:42:08;11.40;99.90
24262;DHT22;12385;51.412;5.540;2024-03-02T11:44:37;11.40;99.90
24262;DHT22;12385;51.412;5.540;2024-03-02T11:47:08;11.50;99.90
24262;DHT22;12385;51.412;5.540;2024-03-02T11:49:41;11.50;99.90
24262;DHT22;12385;51.412;5.540;2024-03-02T11:52:09;11.60;99.90
24262;DHT22;12385;51.412;5.540;2024-03-02T11:54:37;11.60;99.90
24262;DHT22;12385;51.412;5.540;2024-03-02T11:57:05;11.70;99.90
24262;DHT22;12385;51.412;5.540;2024-03-02T11:59:32;11.70;99.90
24262;DHT22;12385;51.412;5.540;2024-03-02T12:01:59;11.80;99.90
24262;DHT22;12385;51.412;5.540;2024-03-02T12:04:26;11.90;99.90
24262;DHT22;12385;51.412;5.540;2024-03-02T12:07:00;12.00;99.90
24262;DHT22;12385;51.412;5.540;2024-03-02T12:09:29;12.00;99.90
24262;DHT22;12385;51.412;5.540;2024-03-02T12:12:07;12.10;99.90
24262;DHT22;12385;51.412;5.540;2024-03-02T12:14:35;12.10;99.90
24262;DHT22;12385;51.412;5.540;2024-03-02T12:17:01;12.20;99.90
24262;DHT22;12385;51.412;5.540;2024-03-02T12:19:27;12.30;99.90
24262;DHT22;12385;51.412;5.540;2024-03-02T12:21:56;12.30;99.90
24262;DHT22;12385;51.412;5.540;2024-03-02T12:24:26;12.40;99.90
24262;DHT22;12385;51.412;5.540;2024-03-02T12:26:54;12.40;99.90
24262;DHT22;12385;51.412;5.540;2024-03-02T12:29:21;12.50;99.90
24262;DHT22;12385;51.412;5.540;2024-03-02T12:31:54;12.60;99.90
24262;DHT22;12385;51.412;5.540;2024-03-02T12:34:21;12.70;99.90
24262;DHT22;12385;51.412;5.540;2024-03-02T12:36:50;12.80;99.90
24262;DHT22;12385;51.412;5.540;2024-03-02T12:39:19;12.90;99.90
24262;DHT22;12385;51.412;5.540;2024-03-02T12:41:46;13.00;99.90
24262;DHT22;12385;51.412;5.540;2024-03-02T12:44:11;13.10;99.90
24262;DHT22;12385;51.412;5.540;2024-03-02T12:46:37;13.20;99.90
24262;DHT22;12385;51.412;5.540;2024-03-02T12:49:11;13.20;99.90
24262;DHT22;12385;51.412;5.540;2024-03-02T12:51:41;13.40;99.90
24262;DHT22;12385;51.412;5.540;2024-03-02T12:54:08;13.40;99.90
24262;DHT22;12385;51.412;5.540;2024-03-02T12:56:36;13.50;99.90
24262;DHT22;12385;51.412;5.540;2024-03-02T12:59:03;13.50;99.90
24262;DHT22;12385;51.412;5.540;2024-03-02T13:01:28;13.50;99.90
24262;DHT22;12385;51.412;5.540;2024-03-02T13:03:55;13.60;99.90
24262;DHT22;12385;51.412;5.540;2024-03-02T13:06:26;13.70;99.90
24262;DHT22;12385;51.412;5.540;2024-03-02T13:08:56;13.90;99.90
24262;DHT22;12385;51.412;5.540;2024-03-02T13:11:25;14.00;99.90
24262;DHT22;12385;51.412;5.540;2024-03-02T13:13:52;14.20;99.90
24262;DHT22;12385;51.412;5.540;2024-03-02T13:16:19;14.30;99.90
24262;DHT22;12385;51.412;5.540;2024-03-02T13:18:46;14.40;99.90
24262;DHT22;12385;51.412;5.540;2024-03-02T13:21:12;14.50;99.90
24262;DHT22;12385;51.412;5.540;2024-03-02T13:23:37;14.60;99.90
24262;DHT22;12385;51.412;5.540;2024-03-02T13:26:03;14.70;99.90
24262;DHT22;12385;51.412;5.540;2024-03-02T13:28:29;14.80;99.90
24262;DHT22;12385;51.412;5.540;2024-03-02T13:30:55;15.00;99.90
24262;DHT22;12385;51.412;5.540;2024-03-02T13:33:21;15.10;99.90
24262;DHT22;12385;51.412;5.540;2024-03-02T13:35:50;15.20;99.90
24262;DHT22;12385;51.412;5.540;2024-03-02T13:38:20;15.40;99.90
24262;DHT22;12385;51.412;5.540;2024-03-02T13:40:48;15.50;99.90
24262;DHT22;12385;51.412;5.540;2024-03-02T13:43:20;15.50;99.90
24262;DHT22;12385;51.412;5.540;2024-03-02T13:45:45;15.60;99.90
24262;DHT22;12385;51.412;5.540;2024-03-02T13:48:11;15.70;99.90
24262;DHT22;12385;51.412;5.540;2024-03-02T13:50:36;15.70;99.90
24262;DHT22;12385;51.412;5.540;2024-03-02T13:53:02;15.70;99.90
24262;DHT22;12385;51.412;5.540;2024-03-02T13:55:28;15.70;99.90
24262;DHT22;12385;51.412;5.540;2024-03-02T13:57:55;15.90;99.90
24262;DHT22;12385;51.412;5.540;2024-03-02T14:00:21;16.20;99.90
24262;DHT22;12385;51.412;5.540;2024-03-02T14:02:46;16.40;99.90
24262;DHT22;12385;51.412;5.540;2024-03-02T14:05:15;16.60;99.90
24262;DHT22;12385;51.412;5.540;2024-03-02T14:07:41;17.10;99.90
24262;DHT22;12385;51.412;5.540;2024-03-02T14:10:07;17.50;99.90
24262;DHT22;12385;51.412;5.540;2024-03-02T14:12:33;17.90;99.90
24262;DHT22;12385;51.412;5.540;2024-03-02T14:14:59;18.30;99.90
24262;DHT22;12385;51.412;5.540;2024-03-02T14:17:25;18.60;99.90
24262;DHT22;12385;51.412;5.540;2024-03-02T14:19:51;18.80;99.90
24262;DHT22;12385;51.412;5.540;2024-03-02T14:22:20;18.90;99.90
24262;DHT22;12385;51.412;5.540;2024-03-02T14:24:46;19.00;99.90
24262;DHT22;12385;51.412;5.540;2024-03-02T14:27:13;19.20;99.90
24262;DHT22;12385;51.412;5.540;2024-03-02T14:29:40;19.30;99.90
24262;DHT22;12385;51.412;5.540;2024-03-02T14:32:06;19.50;99.90
24262;DHT22;12385;51.412;5.540;2024-03-02T14:34:32;19.40;99.40
24262;DHT22;12385;51.412;5.540;2024-03-02T14:36:59;19.00;98.70
24262;DHT22;12385;51.412;5.540;2024-03-02T14:39:28;18.60;98.70
24262;DHT22;12385;51.412;5.540;2024-03-02T14:41:55;18.30;98.80
24262;DHT22;12385;51.412;5.540;2024-03-02T14:44:22;18.20;98.90
24262;DHT22;12385;51.412;5.540;2024-03-02T14:46:49;18.30;99.10
24262;DHT22;12385;51.412;5.540;2024-03-02T14:49:16;18.50;98.90
24262;DHT22;12385;51.412;5.540;2024-03-02T14:51:41;18.60;98.30
24262;DHT22;12385;51.412;5.540;2024-03-02T14:54:07;18.70;98.20
24262;DHT22;12385;51.412;5.540;2024-03-02T14:56:33;19.10;98.10
24262;DHT22;12385;51.412;5.540;2024-03-02T14:58:59;19.50;96.90
24262;DHT22;12385;51.412;5.540;2024-03-02T15:01:25;19.70;96.10
24262;DHT22;12385;51.412;5.540;2024-03-02T15:03:54;19.80;95.30
24262;DHT22;12385;51.412;5.540;2024-03-02T15:06:20;19.60;94.80
24262;DHT22;12385;51.412;5.540;2024-03-02T15:08:46;19.20;95.00
24262;DHT22;12385;51.412;5.540;2024-03-02T15:11:12;18.70;95.20
24262;DHT22;12385;51.412;5.540;2024-03-02T15:13:38;18.30;95.90
24262;DHT22;12385;51.412;5.540;2024-03-02T15:16:04;18.30;95.70
24262;DHT22;12385;51.412;5.540;2024-03-02T15:18:31;18.20;95.60
24262;DHT22;12385;51.412;5.540;2024-03-02T15:20:57;18.20;95.70
24262;DHT22;12385;51.412;5.540;2024-03-02T15:23:25;18.40;95.80
24262;DHT22;12385;51.412;5.540;2024-03-02T15:25:54;18.60;95.10
24262;DHT22;12385;51.412;5.540;2024-03-02T15:28:20;18.50;94.70
24262;DHT22;12385;51.412;5.540;2024-03-02T15:30:46;18.40;94.70
24262;DHT22;12385;51.412;5.540;2024-03-02T15:33:11;18.20;94.80
24262;DHT22;12385;51.412;5.540;2024-03-02T15:35:37;18.00;95.00
24262;DHT22;12385;51.412;5.540;2024-03-02T15:38:03;17.80;95.50
24262;DHT22;12385;51.412;5.540;2024-03-02T15:40:28;17.70;95.90
24262;DHT22;12385;51.412;5.540;2024-03-02T15:42:55;17.90;96.00
24262;DHT22;12385;51.412;5.540;2024-03-02T15:45:21;18.00;95.70
24262;DHT22;12385;51.412;5.540;2024-03-02T15:47:48;17.90;95.70
24262;DHT22;12385;51.412;5.540;2024-03-02T15:50:13;17.60;95.30